sensor_id;sensor_type;location;lat;lon;timestamp;P1;durP1;ratioP1;P2;durP2;ratioP2
46463;SDS011;32161;48.148;-1.554;2023-04-03T00:01:06;8.23;;;2.22;;
46463;SDS011;32161;48.148;-1.554;2023-04-03T00:03:33;8.23;;;2.13;;
46463;SDS011;32161;48.148;-1.554;2023-04-03T00:06:03;8.00;;;2.25;;
46463;SDS011;32161;48.148;-1.554;2023-04-03T00:08:32;5.60;;;1.75;;
46463;SDS011;32161;48.148;-1.554;2023-04-03T00:10:59;6.05;;;2.15;;
46463;SDS011;32161;48.148;-1.554;2023-04-03T00:13:28;9.13;;;2.28;;
46463;SDS011;32161;48.148;-1.554;2023-04-03T00:15:56;7.20;;;2.10;;
46463;SDS011;32161;48.148;-1.554;2023-04-03T00:18:23;7.18;;;2.35;;
46463;SDS011;32161;48.148;-1.554;2023-04-03T00:20:51;8.63;;;2.25;;
46463;SDS011;32161;48.148;-1.554;2023-04-03T00:23:20;10.02;;;2.25;;
46463;SDS011;32161;48.148;-1.554;2023-04-03T00:25:48;12.45;;;2.60;;
46463;SDS011;32161;48.148;-1.554;2023-04-03T00:28:16;7.85;;;3.15;;
46463;SDS011;32161;48.148;-1.554;2023-04-03T00:30:44;13.38;;;3.03;;
46463;SDS011;32161;48.148;-1.554;2023-04-03T00:33:12;12.35;;;3.35;;
46463;SDS011;32161;48.148;-1.554;2023-04-03T00:35:40;18.38;;;3.55;;
46463;SDS011;32161;48.148;-1.554;2023-04-03T00:38:08;8.02;;;2.97;;
46463;SDS011;32161;48.148;-1.554;2023-04-03T00:40:38;8.52;;;3.13;;
46463;SDS011;32161;48.148;-1.554;2023-04-03T00:43:10;7.32;;;2.17;;
46463;SDS011;32161;48.148;-1.554;2023-04-03T00:45:40;10.25;;;2.08;;
46463;SDS011;32161;48.148;-1.554;2023-04-03T00:48:11;14.90;;;3.13;;
46463;SDS011;32161;48.148;-1.554;2023-04-03T00:50:42;14.90;;;2.92;;
46463;SDS011;32161;48.148;-1.554;2023-04-03T00:53:11;14.10;;;2.53;;
46463;SDS011;32161;48.148;-1.554;2023-04-03T00:55:46;13.80;;;2.83;;
46463;SDS011;32161;48.148;-1.554;2023-04-03T00:58:15;10.48;;;2.40;;
46463;SDS011;32161;48.148;-1.554;2023-04-03T01:00:48;24.98;;;3.85;;
46463;SDS011;32161;48.148;-1.554;2023-04-03T01:03:22;11.25;;;2.58;;
46463;SDS011;32161;48.148;-1.554;2023-04-03T01:05:50;9.23;;;2.28;;
46463;SDS011;32161;48.148;-1.554;2023-04-03T01:08:17;7.80;;;2.17;;
46463;SDS011;32161;48.148;-1.554;2023-04-03T01:10:46;8.73;;;2.25;;
46463;SDS011;32161;48.148;-1.554;2023-04-03T01:13:18;9.05;;;2.13;;
46463;SDS011;32161;48.148;-1.554;2023-04-03T01:15:50;6.65;;;1.80;;
46463;SDS011;32161;48.148;-1.554;2023-04-03T01:18:18;10.80;;;2.47;;
46463;SDS011;32161;48.148;-1.554;2023-04-03T01:20:50;9.60;;;2.47;;
46463;SDS011;32161;48.148;-1.554;2023-04-03T01:24:07;6.18;;;1.80;;
46463;SDS011;32161;48.148;-1.554;2023-04-03T01:27:03;8.30;;;2.22;;
46463;SDS011;32161;48.148;-1.554;2023-04-03T01:29:33;14.95;;;2.88;;
46463;SDS011;32161;48.148;-1.554;2023-04-03T01:32:03;10.73;;;2.90;;
46463;SDS011;32161;48.148;-1.554;2023-04-03T01:34:31;8.07;;;2.00;;
46463;SDS011;32161;48.148;-1.554;2023-04-03T01:36:59;9.20;;;3.08;;
46463;SDS011;32161;48.148;-1.554;2023-04-03T01:39:26;8.32;;;1.90;;
46463;SDS011;32161;48.148;-1.554;2023-04-03T01:41:54;6.10;;;1.95;;
46463;SDS011;32161;48.148;-1.554;2023-04-03T01:44:22;8.10;;;1.88;;
46463;SDS011;32161;48.148;-1.554;2023-04-03T01:46:49;5.78;;;2.17;;
46463;SDS011;32161;48.148;-1.554;2023-04-03T01:49:18;13.18;;;2.03;;
46463;SDS011;32161;48.148;-1.554;2023-04-03T01:51:46;12.23;;;2.95;;
46463;SDS011;32161;48.148;-1.554;2023-04-03T01:54:13;11.85;;;3.05;;
46463;SDS011;32161;48.148;-1.554;2023-04-03T01:56:41;11.85;;;2.05;;
46463;SDS011;32161;48.148;-1.554;2023-04-03T01:59:08;11.25;;;2.40;;
46463;SDS011;32161;48.148;-1.554;2023-04-03T02:01:36;8.75;;;2.13;;
46463;SDS011;32161;48.148;-1.554;2023-04-03T02:04:04;14.07;;;3.13;;
46463;SDS011;32161;48.148;-1.554;2023-04-03T02:06:33;12.68;;;2.00;;
46463;SDS011;32161;48.148;-1.554;2023-04-03T02:09:01;6.25;;;2.67;;
46463;SDS011;32161;48.148;-1.554;2023-04-03T02:11:29;7.70;;;2.58;;
46463;SDS011;32161;48.148;-1.554;2023-04-03T02:13:57;11.32;;;2.30;;
46463;SDS011;32161;48.148;-1.554;2023-04-03T02:16:24;8.63;;;2.42;;
46463;SDS011;32161;48.148;-1.554;2023-04-03T02:18:53;8.77;;;2.13;;
46463;SDS011;32161;48.148;-1.554;2023-04-03T02:21:21;9.73;;;2.65;;
46463;SDS011;32161;48.148;-1.554;2023-04-03T02:23:50;14.02;;;2.63;;
46463;SDS011;32161;48.148;-1.554;2023-04-03T02:26:18;12.25;;;2.92;;
46463;SDS011;32161;48.148;-1.554;2023-04-03T02:28:46;8.70;;;2.10;;
46463;SDS011;32161;48.148;-1.554;2023-04-03T02:31:14;9.70;;;2.50;;
46463;SDS011;32161;48.148;-1.554;2023-04-03T02:33:41;12.13;;;3.13;;
46463;SDS011;32161;48.148;-1.554;2023-04-03T02:36:09;19.77;;;3.00;;
46463;SDS011;32161;48.148;-1.554;2023-04-03T02:38:37;8.02;;;2.55;;
46463;SDS011;32161;48.148;-1.554;2023-04-03T02:41:06;18.30;;;3.35;;
46463;SDS011;32161;48.148;-1.554;2023-04-03T02:43:36;8.90;;;2.70;;
46463;SDS011;32161;48.148;-1.554;2023-04-03T02:46:04;13.18;;;2.83;;
46463;SDS011;32161;48.148;-1.554;2023-04-03T02:48:32;7.60;;;2.17;;
46463;SDS011;32161;48.148;-1.554;2023-04-03T02:51:00;13.15;;;2.58;;
46463;SDS011;32161;48.148;-1.554;2023-04-03T02:53:28;13.27;;;2.83;;
46463;SDS011;32161;48.148;-1.554;2023-04-03T02:55:55;9.43;;;2.75;;
46463;SDS011;32161;48.148;-1.554;2023-04-03T02:58:24;14.07;;;2.50;;
46463;SDS011;32161;48.148;-1.554;2023-04-03T03:00:52;9.73;;;2.53;;
46463;SDS011;32161;48.148;-1.554;2023-04-03T03:03:20;17.65;;;3.58;;
46463;SDS011;32161;48.148;-1.554;2023-04-03T03:05:48;18.05;;;3.53;;
46463;SDS011;32161;48.148;-1.554;2023-04-03T03:08:16;11.90;;;2.83;;
46463;SDS011;32161;48.148;-1.554;2023-04-03T03:10:45;13.18;;;2.22;;
46463;SDS011;32161;48.148;-1.554;2023-04-03T03:13:13;10.70;;;2.33;;
46463;SDS011;32161;48.148;-1.554;2023-04-03T03:15:42;12.18;;;3.72;;
46463;SDS011;32161;48.148;-1.554;2023-04-03T03:18:09;17.75;;;3.38;;
46463;SDS011;32161;48.148;-1.554;2023-04-03T03:20:37;17.88;;;3.45;;
46463;SDS011;32161;48.148;-1.554;2023-04-03T03:23:04;9.52;;;2.78;;
46463;SDS011;32161;48.148;-1.554;2023-04-03T03:25:32;12.25;;;2.75;;
46463;SDS011;32161;48.148;-1.554;2023-04-03T03:28:00;15.75;;;4.38;;
46463;SDS011;32161;48.148;-1.554;2023-04-03T03:30:27;10.40;;;2.90;;
46463;SDS011;32161;48.148;-1.554;2023-04-03T03:32:56;6.88;;;2.30;;
46463;SDS011;32161;48.148;-1.554;2023-04-03T03:35:24;10.65;;;2.55;;
46463;SDS011;32161;48.148;-1.554;2023-04-03T03:37:51;8.50;;;2.92;;
46463;SDS011;32161;48.148;-1.554;2023-04-03T03:40:19;10.95;;;2.92;;
46463;SDS011;32161;48.148;-1.554;2023-04-03T03:42:47;12.55;;;2.20;;
46463;SDS011;32161;48.148;-1.554;2023-04-03T03:45:14;10.80;;;2.22;;
46463;SDS011;32161;48.148;-1.554;2023-04-03T03:47:42;11.23;;;2.70;;
46463;SDS011;32161;48.148;-1.554;2023-04-03T03:50:12;12.60;;;2.22;;
46463;SDS011;32161;48.148;-1.554;2023-04-03T03:52:39;9.50;;;2.80;;
46463;SDS011;32161;48.148;-1.554;2023-04-03T03:55:07;7.50;;;2.83;;
46463;SDS011;32161;48.148;-1.554;2023-04-03T03:57:35;8.35;;;2.00;;
46463;SDS011;32161;48.148;-1.554;2023-04-03T04:00:03;12.27;;;2.75;;
46463;SDS011;32161;48.148;-1.554;2023-04-03T04:02:33;8.68;;;2.50;;
46463;SDS011;32161;48.148;-1.554;2023-04-03T04:05:01;7.38;;;1.27;;
46463;SDS011;32161;48.148;-1.554;2023-04-03T04:07:31;17.33;;;4.38;;
46463;SDS011;32161;48.148;-1.554;2023-04-03T04:09:58;10.45;;;2.03;;
46463;SDS011;32161;48.148;-1.554;2023-04-03T04:12:26;7.93;;;2.13;;
46463;SDS011;32161;48.148;-1.554;2023-04-03T04:14:54;15.45;;;2.83;;
46463;SDS011;32161;48.148;-1.554;2023-04-03T04:17:21;6.82;;;2.08;;
46463;SDS011;32161;48.148;-1.554;2023-04-03T04:19:49;7.95;;;2.00;;
46463;SDS011;32161;48.148;-1.554;2023-04-03T04:22:16;6.78;;;2.00;;
46463;SDS011;32161;48.148;-1.554;2023-04-03T04:24:45;8.73;;;2.35;;
46463;SDS011;32161;48.148;-1.554;2023-04-03T04:27:13;10.05;;;2.50;;
46463;SDS011;32161;48.148;-1.554;2023-04-03T04:29:41;10.43;;;2.15;;
46463;SDS011;32161;48.148;-1.554;2023-04-03T04:32:08;10.38;;;2.72;;
46463;SDS011;32161;48.148;-1.554;2023-04-03T04:34:36;7.07;;;2.00;;
46463;SDS011;32161;48.148;-1.554;2023-04-03T04:37:03;8.13;;;2.03;;
46463;SDS011;32161;48.148;-1.554;2023-04-03T04:39:31;7.78;;;2.22;;
46463;SDS011;32161;48.148;-1.554;2023-04-03T04:42:01;4.40;;;2.10;;
46463;SDS011;32161;48.148;-1.554;2023-04-03T04:44:28;6.20;;;2.08;;
46463;SDS011;32161;48.148;-1.554;2023-04-03T04:46:56;5.90;;;2.25;;
46463;SDS011;32161;48.148;-1.554;2023-04-03T04:49:24;16.55;;;2.50;;
46463;SDS011;32161;48.148;-1.554;2023-04-03T04:51:51;8.23;;;2.10;;
46463;SDS011;32161;48.148;-1.554;2023-04-03T04:54:19;9.82;;;2.65;;
46463;SDS011;32161;48.148;-1.554;2023-04-03T04:56:47;8.65;;;2.40;;
46463;SDS011;32161;48.148;-1.554;2023-04-03T04:59:16;12.00;;;2.78;;
46463;SDS011;32161;48.148;-1.554;2023-04-03T05:01:43;11.75;;;2.95;;
46463;SDS011;32161;48.148;-1.554;2023-04-03T05:04:11;11.60;;;2.53;;
46463;SDS011;32161;48.148;-1.554;2023-04-03T05:06:38;7.90;;;2.40;;
46463;SDS011;32161;48.148;-1.554;2023-04-03T05:09:06;12.82;;;2.50;;
46463;SDS011;32161;48.148;-1.554;2023-04-03T05:11:35;10.75;;;2.65;;
46463;SDS011;32161;48.148;-1.554;2023-04-03T05:14:02;10.68;;;2.45;;
46463;SDS011;32161;48.148;-1.554;2023-04-03T05:16:33;9.48;;;3.20;;
46463;SDS011;32161;48.148;-1.554;2023-04-03T05:19:01;10.80;;;3.15;;
46463;SDS011;32161;48.148;-1.554;2023-04-03T05:21:29;13.10;;;2.55;;
46463;SDS011;32161;48.148;-1.554;2023-04-03T05:23:57;8.27;;;2.42;;
46463;SDS011;32161;48.148;-1.554;2023-04-03T05:26:27;10.23;;;3.13;;
46463;SDS011;32161;48.148;-1.554;2023-04-03T05:28:55;10.13;;;3.13;;
46463;SDS011;32161;48.148;-1.554;2023-04-03T05:31:23;8.85;;;2.88;;
46463;SDS011;32161;48.148;-1.554;2023-04-03T05:33:52;6.68;;;3.03;;
46463;SDS011;32161;48.148;-1.554;2023-04-03T05:36:20;19.38;;;3.40;;
46463;SDS011;32161;48.148;-1.554;2023-04-03T05:38:47;10.93;;;3.13;;
46463;SDS011;32161;48.148;-1.554;2023-04-03T05:41:15;7.47;;;2.70;;
46463;SDS011;32161;48.148;-1.554;2023-04-03T05:43:43;12.70;;;3.25;;
46463;SDS011;32161;48.148;-1.554;2023-04-03T05:46:11;8.50;;;3.20;;
46463;SDS011;32161;48.148;-1.554;2023-04-03T05:48:39;11.98;;;3.50;;
46463;SDS011;32161;48.148;-1.554;2023-04-03T05:51:09;9.40;;;3.08;;
46463;SDS011;32161;48.148;-1.554;2023-04-03T05:53:42;11.15;;;3.30;;
46463;SDS011;32161;48.148;-1.554;2023-04-03T05:56:11;8.30;;;2.60;;
46463;SDS011;32161;48.148;-1.554;2023-04-03T05:58:39;6.13;;;3.10;;
46463;SDS011;32161;48.148;-1.554;2023-04-03T06:01:06;9.73;;;2.80;;
46463;SDS011;32161;48.148;-1.554;2023-04-03T06:03:34;10.65;;;3.58;;
46463;SDS011;32161;48.148;-1.554;2023-04-03T06:06:03;10.10;;;3.63;;
46463;SDS011;32161;48.148;-1.554;2023-04-03T06:08:32;6.80;;;2.70;;
46463;SDS011;32161;48.148;-1.554;2023-04-03T06:11:00;3.92;;;2.50;;
46463;SDS011;32161;48.148;-1.554;2023-04-03T06:13:28;8.73;;;3.70;;
46463;SDS011;32161;48.148;-1.554;2023-04-03T06:15:56;10.82;;;3.13;;
46463;SDS011;32161;48.148;-1.554;2023-04-03T06:18:24;6.78;;;2.95;;
46463;SDS011;32161;48.148;-1.554;2023-04-03T06:20:51;9.27;;;2.70;;
46463;SDS011;32161;48.148;-1.554;2023-04-03T06:23:19;6.28;;;3.17;;
46463;SDS011;32161;48.148;-1.554;2023-04-03T06:25:48;10.00;;;3.20;;
46463;SDS011;32161;48.148;-1.554;2023-04-03T06:28:16;9.70;;;2.83;;
46463;SDS011;32161;48.148;-1.554;2023-04-03T06:30:44;9.90;;;3.30;;
46463;SDS011;32161;48.148;-1.554;2023-04-03T06:33:12;9.02;;;3.20;;
46463;SDS011;32161;48.148;-1.554;2023-04-03T06:35:39;8.32;;;3.28;;
46463;SDS011;32161;48.148;-1.554;2023-04-03T06:38:07;9.85;;;3.55;;
46463;SDS011;32161;48.148;-1.554;2023-04-03T06:40:35;7.38;;;3.45;;
46463;SDS011;32161;48.148;-1.554;2023-04-03T06:43:04;13.10;;;3.83;;
46463;SDS011;32161;48.148;-1.554;2023-04-03T06:45:32;12.27;;;3.88;;
46463;SDS011;32161;48.148;-1.554;2023-04-03T06:48:01;6.65;;;3.60;;
46463;SDS011;32161;48.148;-1.554;2023-04-03T06:50:29;11.57;;;3.70;;
46463;SDS011;32161;48.148;-1.554;2023-04-03T06:52:56;10.88;;;3.80;;
46463;SDS011;32161;48.148;-1.554;2023-04-03T06:55:24;6.95;;;3.42;;
46463;SDS011;32161;48.148;-1.554;2023-04-03T06:57:51;14.55;;;3.70;;
46463;SDS011;32161;48.148;-1.554;2023-04-03T07:00:21;10.50;;;3.70;;
46463;SDS011;32161;48.148;-1.554;2023-04-03T07:02:48;10.77;;;4.13;;
46463;SDS011;32161;48.148;-1.554;2023-04-03T07:05:16;8.30;;;3.50;;
46463;SDS011;32161;48.148;-1.554;2023-04-03T07:07:44;8.60;;;4.47;;
46463;SDS011;32161;48.148;-1.554;2023-04-03T07:10:12;8.80;;;3.88;;
46463;SDS011;32161;48.148;-1.554;2023-04-03T07:12:39;9.30;;;4.18;;
46463;SDS011;32161;48.148;-1.554;2023-04-03T07:15:07;9.05;;;4.25;;
46463;SDS011;32161;48.148;-1.554;2023-04-03T07:17:38;7.63;;;3.90;;
46463;SDS011;32161;48.148;-1.554;2023-04-03T07:20:07;8.20;;;4.45;;
46463;SDS011;32161;48.148;-1.554;2023-04-03T07:22:35;9.90;;;4.72;;
46463;SDS011;32161;48.148;-1.554;2023-04-03T07:25:03;8.93;;;5.03;;
46463;SDS011;32161;48.148;-1.554;2023-04-03T07:27:32;10.00;;;5.45;;
46463;SDS011;32161;48.148;-1.554;2023-04-03T07:30:00;9.25;;;4.88;;
46463;SDS011;32161;48.148;-1.554;2023-04-03T07:32:28;8.70;;;5.22;;
46463;SDS011;32161;48.148;-1.554;2023-04-03T07:34:57;6.85;;;5.35;;
46463;SDS011;32161;48.148;-1.554;2023-04-03T07:37:25;9.93;;;5.07;;
46463;SDS011;32161;48.148;-1.554;2023-04-03T07:39:53;9.10;;;5.28;;
46463;SDS011;32161;48.148;-1.554;2023-04-03T07:42:22;8.77;;;5.30;;
46463;SDS011;32161;48.148;-1.554;2023-04-03T07:44:49;5.95;;;4.90;;
46463;SDS011;32161;48.148;-1.554;2023-04-03T07:47:17;10.27;;;5.30;;
46463;SDS011;32161;48.148;-1.554;2023-04-03T07:49:45;9.35;;;5.57;;
46463;SDS011;32161;48.148;-1.554;2023-04-03T07:52:14;12.88;;;5.32;;
46463;SDS011;32161;48.148;-1.554;2023-04-03T07:54:42;13.10;;;5.55;;
46463;SDS011;32161;48.148;-1.554;2023-04-03T07:57:10;10.35;;;5.75;;
46463;SDS011;32161;48.148;-1.554;2023-04-03T07:59:37;11.93;;;7.32;;
46463;SDS011;32161;48.148;-1.554;2023-04-03T08:02:08;10.93;;;5.25;;
46463;SDS011;32161;48.148;-1.554;2023-04-03T08:04:36;8.55;;;5.15;;
46463;SDS011;32161;48.148;-1.554;2023-04-03T08:07:04;7.65;;;5.30;;
46463;SDS011;32161;48.148;-1.554;2023-04-03T08:09:33;7.68;;;6.13;;
46463;SDS011;32161;48.148;-1.554;2023-04-03T08:12:00;10.43;;;5.75;;
46463;SDS011;32161;48.148;-1.554;2023-04-03T08:14:29;8.15;;;5.43;;
46463;SDS011;32161;48.148;-1.554;2023-04-03T08:16:59;11.95;;;6.50;;
46463;SDS011;32161;48.148;-1.554;2023-04-03T08:19:29;11.73;;;6.53;;
46463;SDS011;32161;48.148;-1.554;2023-04-03T08:21:57;12.68;;;6.95;;
46463;SDS011;32161;48.148;-1.554;2023-04-03T08:24:28;10.35;;;6.53;;
46463;SDS011;32161;48.148;-1.554;2023-04-03T08:26:57;10.63;;;7.05;;
46463;SDS011;32161;48.148;-1.554;2023-04-03T08:29:24;13.52;;;7.00;;
46463;SDS011;32161;48.148;-1.554;2023-04-03T08:31:52;9.77;;;6.88;;
46463;SDS011;32161;48.148;-1.554;2023-04-03T08:34:20;8.05;;;6.55;;
46463;SDS011;32161;48.148;-1.554;2023-04-03T08:36:48;13.50;;;8.13;;
46463;SDS011;32161;48.148;-1.554;2023-04-03T08:39:16;13.68;;;7.60;;
46463;SDS011;32161;48.148;-1.554;2023-04-03T08:41:44;8.60;;;7.38;;
46463;SDS011;32161;48.148;-1.554;2023-04-03T08:44:19;12.38;;;7.38;;
46463;SDS011;32161;48.148;-1.554;2023-04-03T08:46:57;12.38;;;7.95;;
46463;SDS011;32161;48.148;-1.554;2023-04-03T08:49:41;8.65;;;7.70;;
46463;SDS011;32161;48.148;-1.554;2023-04-03T08:52:13;10.63;;;7.93;;
46463;SDS011;32161;48.148;-1.554;2023-04-03T08:54:48;11.95;;;8.10;;
46463;SDS011;32161;48.148;-1.554;2023-04-03T08:57:20;10.32;;;8.52;;
46463;SDS011;32161;48.148;-1.554;2023-04-03T08:59:57;11.10;;;9.27;;
46463;SDS011;32161;48.148;-1.554;2023-04-03T09:02:31;9.07;;;8.18;;
46463;SDS011;32161;48.148;-1.554;2023-04-03T09:05:08;10.07;;;8.40;;
46463;SDS011;32161;48.148;-1.554;2023-04-03T09:07:42;11.23;;;9.20;;
46463;SDS011;32161;48.148;-1.554;2023-04-03T09:10:14;11.30;;;9.43;;
46463;SDS011;32161;48.148;-1.554;2023-04-03T09:12:46;10.02;;;8.95;;
46463;SDS011;32161;48.148;-1.554;2023-04-03T09:15:25;13.90;;;10.02;;
46463;SDS011;32161;48.148;-1.554;2023-04-03T09:17:57;12.18;;;9.70;;
46463;SDS011;32161;48.148;-1.554;2023-04-03T09:20:33;15.02;;;9.88;;
46463;SDS011;32161;48.148;-1.554;2023-04-03T09:23:13;11.55;;;9.25;;
46463;SDS011;32161;48.148;-1.554;2023-04-03T09:25:48;13.10;;;9.80;;
46463;SDS011;32161;48.148;-1.554;2023-04-03T09:28:20;11.35;;;9.55;;
46463;SDS011;32161;48.148;-1.554;2023-04-03T09:30:49;11.25;;;9.95;;
46463;SDS011;32161;48.148;-1.554;2023-04-03T09:33:17;11.13;;;8.82;;
46463;SDS011;32161;48.148;-1.554;2023-04-03T09:35:46;11.85;;;10.05;;
46463;SDS011;32161;48.148;-1.554;2023-04-03T09:38:16;9.80;;;8.80;;
46463;SDS011;32161;48.148;-1.554;2023-04-03T09:40:47;11.98;;;9.75;;
46463;SDS011;32161;48.148;-1.554;2023-04-03T09:43:22;13.35;;;10.10;;
46463;SDS011;32161;48.148;-1.554;2023-04-03T09:46:15;10.55;;;9.43;;
46463;SDS011;32161;48.148;-1.554;2023-04-03T09:48:52;11.73;;;9.82;;
46463;SDS011;32161;48.148;-1.554;2023-04-03T09:51:29;10.93;;;9.75;;
46463;SDS011;32161;48.148;-1.554;2023-04-03T09:53:57;10.30;;;9.27;;
46463;SDS011;32161;48.148;-1.554;2023-04-03T09:56:26;11.10;;;9.90;;
46463;SDS011;32161;48.148;-1.554;2023-04-03T10:01:43;10.23;;;9.13;;
46463;SDS011;32161;48.148;-1.554;2023-04-03T10:04:27;11.02;;;9.63;;
46463;SDS011;32161;48.148;-1.554;2023-04-03T10:07:26;11.80;;;10.50;;
46463;SDS011;32161;48.148;-1.554;2023-04-03T10:09:58;14.57;;;10.88;;
46463;SDS011;32161;48.148;-1.554;2023-04-03T10:12:28;11.50;;;10.13;;
46463;SDS011;32161;48.148;-1.554;2023-04-03T10:14:57;10.65;;;9.05;;
46463;SDS011;32161;48.148;-1.554;2023-04-03T10:20:17;13.13;;;9.80;;
46463;SDS011;32161;48.148;-1.554;2023-04-03T10:23:00;10.48;;;9.38;;
46463;SDS011;32161;48.148;-1.554;2023-04-03T10:25:43;15.18;;;10.68;;
46463;SDS011;32161;48.148;-1.554;2023-04-03T10:28:23;11.38;;;10.18;;
46463;SDS011;32161;48.148;-1.554;2023-04-03T10:31:02;10.82;;;9.73;;
46463;SDS011;32161;48.148;-1.554;2023-04-03T10:33:42;11.77;;;9.90;;
46463;SDS011;32161;48.148;-1.554;2023-04-03T10:36:24;11.57;;;9.80;;
46463;SDS011;32161;48.148;-1.554;2023-04-03T10:39:06;11.27;;;9.93;;
46463;SDS011;32161;48.148;-1.554;2023-04-03T10:41:54;10.65;;;9.63;;
46463;SDS011;32161;48.148;-1.554;2023-04-03T10:44:31;10.90;;;9.77;;
46463;SDS011;32161;48.148;-1.554;2023-04-03T10:47:10;10.13;;;8.73;;
46463;SDS011;32161;48.148;-1.554;2023-04-03T10:49:49;10.43;;;9.30;;
46463;SDS011;32161;48.148;-1.554;2023-04-03T10:52:28;9.73;;;8.83;;
46463;SDS011;32161;48.148;-1.554;2023-04-03T10:55:07;11.85;;;8.75;;
46463;SDS011;32161;48.148;-1.554;2023-04-03T10:57:51;10.05;;;9.05;;
46463;SDS011;32161;48.148;-1.554;2023-04-03T11:00:25;10.20;;;9.20;;
46463;SDS011;32161;48.148;-1.554;2023-04-03T11:03:03;12.27;;;9.15;;
46463;SDS011;32161;48.148;-1.554;2023-04-03T11:05:40;9.90;;;9.00;;
46463;SDS011;32161;48.148;-1.554;2023-04-03T11:08:12;10.65;;;8.73;;
46463;SDS011;32161;48.148;-1.554;2023-04-03T11:10:51;9.95;;;8.95;;
46463;SDS011;32161;48.148;-1.554;2023-04-03T11:13:26;10.07;;;9.18;;
46463;SDS011;32161;48.148;-1.554;2023-04-03T11:15:59;8.70;;;7.90;;
46463;SDS011;32161;48.148;-1.554;2023-04-03T11:18:31;9.50;;;8.45;;
46463;SDS011;32161;48.148;-1.554;2023-04-03T11:21:09;8.13;;;7.38;;
46463;SDS011;32161;48.148;-1.554;2023-04-03T11:23:44;7.75;;;7.05;;
46463;SDS011;32161;48.148;-1.554;2023-04-03T11:26:13;11.60;;;7.78;;
46463;SDS011;32161;48.148;-1.554;2023-04-03T11:28:45;8.05;;;7.28;;
46463;SDS011;32161;48.148;-1.554;2023-04-03T11:31:27;8.02;;;7.32;;
46463;SDS011;32161;48.148;-1.554;2023-04-03T11:34:12;9.70;;;7.45;;
46463;SDS011;32161;48.148;-1.554;2023-04-03T11:36:55;8.85;;;7.95;;
46463;SDS011;32161;48.148;-1.554;2023-04-03T11:39:27;8.15;;;7.45;;
46463;SDS011;32161;48.148;-1.554;2023-04-03T11:44:42;7.97;;;7.15;;
46463;SDS011;32161;48.148;-1.554;2023-04-03T11:47:10;8.02;;;7.22;;
46463;SDS011;32161;48.148;-1.554;2023-04-03T11:49:57;8.95;;;8.15;;
46463;SDS011;32161;48.148;-1.554;2023-04-03T11:55:51;8.52;;;7.63;;
46463;SDS011;32161;48.148;-1.554;2023-04-03T11:58:27;9.80;;;7.28;;
46463;SDS011;32161;48.148;-1.554;2023-04-03T12:00:59;8.23;;;7.07;;
46463;SDS011;32161;48.148;-1.554;2023-04-03T12:12:56;6.97;;;6.38;;
46463;SDS011;32161;48.148;-1.554;2023-04-03T12:24:35;6.60;;;6.00;;
46463;SDS011;32161;48.148;-1.554;2023-04-03T12:30:12;6.60;;;5.97;;
46463;SDS011;32161;48.148;-1.554;2023-04-03T12:35:57;6.43;;;5.93;;
46463;SDS011;32161;48.148;-1.554;2023-04-03T12:41:30;6.15;;;5.55;;
46463;SDS011;32161;48.148;-1.554;2023-04-03T12:44:11;6.10;;;5.68;;
46463;SDS011;32161;48.148;-1.554;2023-04-03T12:49:48;6.30;;;5.57;;
46463;SDS011;32161;48.148;-1.554;2023-04-03T12:52:18;6.35;;;5.75;;
46463;SDS011;32161;48.148;-1.554;2023-04-03T12:54:56;6.53;;;5.68;;
46463;SDS011;32161;48.148;-1.554;2023-04-03T12:57:25;6.18;;;5.65;;
46463;SDS011;32161;48.148;-1.554;2023-04-03T12:59:55;6.55;;;6.00;;
46463;SDS011;32161;48.148;-1.554;2023-04-03T13:02:24;6.25;;;5.72;;
46463;SDS011;32161;48.148;-1.554;2023-04-03T13:04:53;6.67;;;5.30;;
46463;SDS011;32161;48.148;-1.554;2023-04-03T13:07:25;6.32;;;5.68;;
46463;SDS011;32161;48.148;-1.554;2023-04-03T13:09:59;5.80;;;5.30;;
46463;SDS011;32161;48.148;-1.554;2023-04-03T13:12:45;5.60;;;5.10;;
46463;SDS011;32161;48.148;-1.554;2023-04-03T13:15:18;5.20;;;4.80;;
46463;SDS011;32161;48.148;-1.554;2023-04-03T13:17:50;6.72;;;5.38;;
46463;SDS011;32161;48.148;-1.554;2023-04-03T13:20:20;6.30;;;5.80;;
46463;SDS011;32161;48.148;-1.554;2023-04-03T13:22:53;6.45;;;5.45;;
46463;SDS011;32161;48.148;-1.554;2023-04-03T13:25:26;6.72;;;5.47;;
46463;SDS011;32161;48.148;-1.554;2023-04-03T13:27:58;5.97;;;5.30;;
46463;SDS011;32161;48.148;-1.554;2023-04-03T13:30:30;6.28;;;5.60;;
46463;SDS011;32161;48.148;-1.554;2023-04-03T13:33:00;4.97;;;4.60;;
46463;SDS011;32161;48.148;-1.554;2023-04-03T13:35:36;5.90;;;5.40;;
46463;SDS011;32161;48.148;-1.554;2023-04-03T13:38:07;7.65;;;5.55;;
46463;SDS011;32161;48.148;-1.554;2023-04-03T13:40:52;5.13;;;4.75;;
46463;SDS011;32161;48.148;-1.554;2023-04-03T13:43:23;6.93;;;4.88;;
46463;SDS011;32161;48.148;-1.554;2023-04-03T13:45:55;4.90;;;4.45;;
46463;SDS011;32161;48.148;-1.554;2023-04-03T13:48:34;5.57;;;4.85;;
46463;SDS011;32161;48.148;-1.554;2023-04-03T13:51:16;5.97;;;5.35;;
46463;SDS011;32161;48.148;-1.554;2023-04-03T13:53:48;6.43;;;5.10;;
46463;SDS011;32161;48.148;-1.554;2023-04-03T13:56:21;5.43;;;5.03;;
46463;SDS011;32161;48.148;-1.554;2023-04-03T13:59:18;6.28;;;4.45;;
46463;SDS011;32161;48.148;-1.554;2023-04-03T14:01:53;4.82;;;4.53;;
46463;SDS011;32161;48.148;-1.554;2023-04-03T14:04:46;4.82;;;4.43;;
46463;SDS011;32161;48.148;-1.554;2023-04-03T14:07:23;5.15;;;4.35;;
46463;SDS011;32161;48.148;-1.554;2023-04-03T14:09:52;5.20;;;4.75;;
46463;SDS011;32161;48.148;-1.554;2023-04-03T14:12:21;5.68;;;5.22;;
46463;SDS011;32161;48.148;-1.554;2023-04-03T14:14:54;4.82;;;4.40;;
46463;SDS011;32161;48.148;-1.554;2023-04-03T14:17:24;5.68;;;4.32;;
46463;SDS011;32161;48.148;-1.554;2023-04-03T14:19:53;4.80;;;4.47;;
46463;SDS011;32161;48.148;-1.554;2023-04-03T14:22:22;4.93;;;4.50;;
46463;SDS011;32161;48.148;-1.554;2023-04-03T14:24:53;5.10;;;4.47;;
46463;SDS011;32161;48.148;-1.554;2023-04-03T14:27:23;6.18;;;4.82;;
46463;SDS011;32161;48.148;-1.554;2023-04-03T14:29:54;5.35;;;4.85;;
46463;SDS011;32161;48.148;-1.554;2023-04-03T14:32:26;5.10;;;4.60;;
46463;SDS011;32161;48.148;-1.554;2023-04-03T14:34:54;5.53;;;5.03;;
46463;SDS011;32161;48.148;-1.554;2023-04-03T14:37:23;6.85;;;5.50;;
46463;SDS011;32161;48.148;-1.554;2023-04-03T14:39:54;4.95;;;4.55;;
46463;SDS011;32161;48.148;-1.554;2023-04-03T14:42:25;5.03;;;4.63;;
46463;SDS011;32161;48.148;-1.554;2023-04-03T14:44:56;5.18;;;4.70;;
46463;SDS011;32161;48.148;-1.554;2023-04-03T14:47:27;4.88;;;4.50;;
46463;SDS011;32161;48.148;-1.554;2023-04-03T14:52:25;5.32;;;4.80;;
46463;SDS011;32161;48.148;-1.554;2023-04-03T14:54:55;5.55;;;4.85;;
46463;SDS011;32161;48.148;-1.554;2023-04-03T14:57:24;5.25;;;4.82;;
46463;SDS011;32161;48.148;-1.554;2023-04-03T14:59:53;4.53;;;4.22;;
46463;SDS011;32161;48.148;-1.554;2023-04-03T15:02:26;5.18;;;4.68;;
46463;SDS011;32161;48.148;-1.554;2023-04-03T15:04:57;5.25;;;4.70;;
46463;SDS011;32161;48.148;-1.554;2023-04-03T15:07:28;5.50;;;5.10;;
46463;SDS011;32161;48.148;-1.554;2023-04-03T15:09:59;4.53;;;4.13;;
46463;SDS011;32161;48.148;-1.554;2023-04-03T15:12:30;4.15;;;3.83;;
46463;SDS011;32161;48.148;-1.554;2023-04-03T15:14:57;4.88;;;4.50;;
46463;SDS011;32161;48.148;-1.554;2023-04-03T15:17:26;4.50;;;4.18;;
46463;SDS011;32161;48.148;-1.554;2023-04-03T15:19:54;5.13;;;4.13;;
46463;SDS011;32161;48.148;-1.554;2023-04-03T15:22:22;5.00;;;4.30;;
46463;SDS011;32161;48.148;-1.554;2023-04-03T15:24:49;3.95;;;3.72;;
46463;SDS011;32161;48.148;-1.554;2023-04-03T15:27:17;4.40;;;4.07;;
46463;SDS011;32161;48.148;-1.554;2023-04-03T15:29:45;4.22;;;3.92;;
46463;SDS011;32161;48.148;-1.554;2023-04-03T15:32:13;4.55;;;4.15;;
46463;SDS011;32161;48.148;-1.554;2023-04-03T15:34:42;4.30;;;4.00;;